createdAt,value
2017-08-03T00:00:09.896Z,0
2017-08-03T00:00:36.060Z,0
2017-08-03T00:01:02.266Z,0
2017-08-03T00:01:28.426Z,0
2017-08-03T00:01:54.539Z,0
2017-08-03T00:02:20.686Z,0
2017-08-03T00:02:46.849Z,0
2017-08-03T00:03:12.990Z,0
2017-08-03T00:03:39.174Z,0
2017-08-03T00:04:05.312Z,0
2017-08-03T00:04:31.413Z,0
2017-08-03T00:04:57.602Z,0
2017-08-03T00:05:23.717Z,0
2017-08-03T00:05:49.866Z,0
2017-08-03T00:06:16.026Z,0
2017-08-03T00:06:42.145Z,0
2017-08-03T00:07:08.266Z,0
2017-08-03T00:07:34.454Z,0
2017-08-03T00:08:00.576Z,0
2017-08-03T00:08:26.668Z,0
2017-08-03T00:08:52.770Z,0
2017-08-03T00:09:18.972Z,0
2017-08-03T00:09:45.157Z,0
2017-08-03T00:10:11.322Z,0
2017-08-03T00:10:37.466Z,0
2017-08-03T00:11:03.627Z,0
2017-08-03T00:11:29.771Z,0
2017-08-03T00:11:55.934Z,0
2017-08-03T00:12:22.094Z,0
2017-08-03T00:12:48.223Z,0
2017-08-03T00:13:14.361Z,0
2017-08-03T00:13:40.495Z,0
2017-08-03T00:14:06.663Z,0
2017-08-03T00:14:32.778Z,0
2017-08-03T00:14:58.899Z,0
2017-08-03T00:15:25.012Z,0
2017-08-03T00:15:51.174Z,0
2017-08-03T00:16:17.269Z,0
2017-08-03T00:16:43.358Z,0
2017-08-03T00:17:09.462Z,0
2017-08-03T00:17:35.563Z,0
2017-08-03T00:18:01.674Z,0
2017-08-03T00:18:27.800Z,0
2017-08-03T00:18:53.937Z,0
2017-08-03T00:19:20.123Z,0
2017-08-03T00:19:46.224Z,0
2017-08-03T00:20:12.413Z,0
2017-08-03T00:20:38.505Z,0
2017-08-03T00:21:04.652Z,0
2017-08-03T00:21:30.812Z,0
2017-08-03T00:21:56.929Z,0
2017-08-03T00:22:23.069Z,0
2017-08-03T00:22:49.288Z,0
2017-08-03T00:23:15.442Z,0
2017-08-03T00:23:41.557Z,0
2017-08-03T00:24:07.743Z,0
2017-08-03T00:24:33.869Z,0
2017-08-03T00:24:59.985Z,0
2017-08-03T00:25:26.139Z,0
2017-08-03T00:25:52.311Z,0
2017-08-03T00:26:18.500Z,0
2017-08-03T00:26:44.625Z,0
2017-08-03T00:27:10.743Z,0
2017-08-03T00:27:36.927Z,0
2017-08-03T00:28:03.054Z,0
2017-08-03T00:28:29.221Z,0
2017-08-03T00:28:55.403Z,0
2017-08-03T00:29:21.542Z,0
2017-08-03T00:29:47.680Z,0
2017-08-03T00:30:13.855Z,0
2017-08-03T00:30:39.991Z,0
2017-08-03T00:31:06.156Z,0
2017-08-03T00:31:32.316Z,0
2017-08-03T00:31:58.480Z,0
2017-08-03T00:32:24.610Z,0
2017-08-03T00:32:50.716Z,0
2017-08-03T00:33:16.904Z,0
2017-08-03T00:33:43.007Z,0
2017-08-03T00:34:09.139Z,0
2017-08-03T00:34:35.308Z,0
2017-08-03T00:35:01.403Z,0
2017-08-03T00:35:27.508Z,0
2017-08-03T00:35:53.626Z,0
2017-08-03T00:36:19.763Z,0
2017-08-03T00:36:45.942Z,0
2017-08-03T00:37:12.067Z,0
2017-08-03T00:37:38.227Z,0
2017-08-03T00:38:04.368Z,0
2017-08-03T00:38:30.541Z,0
2017-08-03T00:38:56.674Z,0
2017-08-03T00:39:22.894Z,0
2017-08-03T00:39:49.010Z,0
2017-08-03T00:40:15.171Z,0
2017-08-03T00:40:41.296Z,0
2017-08-03T00:41:07.411Z,0
2017-08-03T00:41:33.594Z,0
2017-08-03T00:41:59.747Z,0
2017-08-03T00:42:25.923Z,0
2017-08-03T00:42:52.071Z,0
2017-08-03T00:43:18.184Z,0
2017-08-03T00:43:44.322Z,0
2017-08-03T00:44:10.419Z,0
2017-08-03T00:44:36.537Z,0
2017-08-03T00:45:02.667Z,0
2017-08-03T00:45:28.849Z,0
2017-08-03T00:45:55.010Z,0
2017-08-03T00:46:21.186Z,0
2017-08-03T00:46:47.322Z,0
2017-08-03T00:47:13.461Z,0
2017-08-03T00:47:39.662Z,0
2017-08-03T00:48:05.781Z,0
2017-08-03T00:48:32.006Z,0
2017-08-03T00:48:58.170Z,0
2017-08-03T00:49:24.287Z,0
2017-08-03T00:49:50.386Z,0
2017-08-03T00:50:16.547Z,0
2017-08-03T00:50:42.683Z,0
2017-08-03T00:51:08.854Z,0
2017-08-03T00:51:34.961Z,0
2017-08-03T00:52:01.052Z,0
2017-08-03T00:52:27.176Z,0
2017-08-03T00:52:53.359Z,0
2017-08-03T00:53:19.479Z,0
2017-08-03T00:53:45.584Z,0
2017-08-03T00:54:11.670Z,0
2017-08-03T00:54:37.817Z,0
2017-08-03T00:55:03.949Z,0
2017-08-03T00:55:30.038Z,0
2017-08-03T00:55:56.134Z,0
2017-08-03T00:56:22.321Z,0
2017-08-03T00:56:48.469Z,0
2017-08-03T00:57:14.955Z,0
2017-08-03T00:57:41.090Z,0
2017-08-03T00:58:07.186Z,0
2017-08-03T00:58:33.299Z,0
2017-08-03T00:58:59.431Z,0
2017-08-03T00:59:25.574Z,0
2017-08-03T00:59:51.737Z,0
2017-08-03T01:00:17.886Z,0
2017-08-03T01:00:44.002Z,0
2017-08-03T01:01:10.112Z,0
2017-08-03T01:01:36.236Z,0
2017-08-03T01:02:02.374Z,0
2017-08-03T01:02:28.556Z,0
2017-08-03T01:02:54.711Z,0
2017-08-03T01:03:20.852Z,0
2017-08-03T01:03:47.005Z,0
2017-08-03T01:04:13.167Z,0
2017-08-03T01:04:39.285Z,0
2017-08-03T01:05:05.433Z,0
2017-08-03T01:05:31.568Z,0
2017-08-03T01:05:57.683Z,0
2017-08-03T01:06:23.780Z,0
2017-08-03T01:06:49.888Z,0
2017-08-03T01:07:16.028Z,0
2017-08-03T01:07:42.144Z,0
2017-08-03T01:08:08.305Z,0
2017-08-03T01:08:34.401Z,0
2017-08-03T01:09:00.516Z,0
2017-08-03T01:09:26.623Z,0
2017-08-03T01:09:52.750Z,0
2017-08-03T01:10:18.878Z,0
2017-08-03T01:10:44.996Z,0
2017-08-03T01:11:11.161Z,0
2017-08-03T01:11:37.270Z,0
2017-08-03T01:12:03.424Z,0
2017-08-03T01:12:29.537Z,0
2017-08-03T01:12:55.749Z,0
2017-08-03T01:13:21.849Z,0
2017-08-03T01:13:47.938Z,0
2017-08-03T01:14:14.116Z,0
2017-08-03T01:14:40.250Z,0
2017-08-03T01:15:06.416Z,0
2017-08-03T01:15:32.562Z,0
2017-08-03T01:15:58.656Z,0
2017-08-03T01:16:24.815Z,0
2017-08-03T01:16:50.994Z,0
2017-08-03T01:17:17.110Z,0
2017-08-03T01:17:43.214Z,0
2017-08-03T01:18:09.408Z,0
2017-08-03T01:18:35.520Z,0
2017-08-03T01:19:01.695Z,0
2017-08-03T01:19:27.858Z,0
2017-08-03T01:19:54.005Z,0
2017-08-03T01:20:20.128Z,0
2017-08-03T01:20:46.292Z,0
2017-08-03T01:21:12.386Z,0
2017-08-03T01:21:38.544Z,0
2017-08-03T01:22:04.656Z,0
2017-08-03T01:22:30.856Z,0
2017-08-03T01:22:56.989Z,0
2017-08-03T01:23:23.076Z,0
2017-08-03T01:23:49.198Z,0
2017-08-03T01:24:15.360Z,0
2017-08-03T01:24:41.508Z,0
2017-08-03T01:25:07.601Z,0
2017-08-03T01:25:33.780Z,0
2017-08-03T01:25:59.879Z,0
2017-08-03T01:26:26.020Z,0
2017-08-03T01:26:52.176Z,0
2017-08-03T01:27:18.623Z,0
2017-08-03T01:27:44.754Z,0
2017-08-03T01:28:10.903Z,0
2017-08-03T01:28:37.017Z,0
2017-08-03T01:29:03.154Z,0
2017-08-03T01:29:29.252Z,0
2017-08-03T01:29:55.389Z,0
2017-08-03T01:30:21.547Z,0
2017-08-03T01:30:47.700Z,0
2017-08-03T01:31:13.837Z,0
2017-08-03T01:31:39.999Z,0
2017-08-03T01:32:06.124Z,0
2017-08-03T01:32:32.241Z,0
2017-08-03T01:32:58.337Z,0
2017-08-03T01:33:24.497Z,0
2017-08-03T01:33:50.630Z,0
2017-08-03T01:34:16.757Z,0
2017-08-03T01:34:42.917Z,0
2017-08-03T01:35:09.047Z,0
2017-08-03T01:35:35.155Z,0
2017-08-03T01:36:01.320Z,0
2017-08-03T01:36:27.419Z,0
2017-08-03T01:36:53.525Z,0
2017-08-03T01:37:19.668Z,0
2017-08-03T01:37:45.766Z,0
2017-08-03T01:38:11.890Z,0
2017-08-03T01:38:38.039Z,0
2017-08-03T01:39:04.174Z,0
2017-08-03T01:39:30.317Z,0
2017-08-03T01:39:56.436Z,0
2017-08-03T01:40:22.597Z,0
2017-08-03T01:40:48.761Z,0
2017-08-03T01:41:14.882Z,0
2017-08-03T01:41:41.045Z,0
2017-08-03T01:42:07.215Z,0
2017-08-03T01:42:33.352Z,0
2017-08-03T01:42:59.517Z,0
2017-08-03T01:43:25.613Z,0
2017-08-03T01:43:51.718Z,0
2017-08-03T01:44:17.889Z,0
2017-08-03T01:44:44.056Z,0
2017-08-03T01:45:10.246Z,0
2017-08-03T01:45:36.365Z,0
2017-08-03T01:46:02.503Z,0
2017-08-03T01:46:28.636Z,0
2017-08-03T01:46:54.758Z,0
2017-08-03T01:47:20.899Z,0
2017-08-03T01:47:47.033Z,0
2017-08-03T01:48:13.163Z,0
2017-08-03T01:48:39.299Z,0
2017-08-03T01:49:05.426Z,0
2017-08-03T01:49:31.559Z,0
2017-08-03T01:49:57.671Z,0
2017-08-03T01:50:23.823Z,0
2017-08-03T01:50:49.956Z,0
2017-08-03T01:51:16.072Z,0
2017-08-03T01:51:42.192Z,0
2017-08-03T01:52:08.379Z,0
2017-08-03T01:52:34.498Z,0
2017-08-03T01:53:00.620Z,0
2017-08-03T01:53:26.778Z,0
2017-08-03T01:53:52.957Z,0
2017-08-03T01:54:19.068Z,0
2017-08-03T01:54:45.195Z,0
2017-08-03T01:55:11.313Z,0
2017-08-03T01:55:37.502Z,0
2017-08-03T01:56:03.650Z,0
2017-08-03T01:56:29.763Z,0
2017-08-03T01:56:55.898Z,0
2017-08-03T01:57:22.021Z,0
2017-08-03T01:57:48.460Z,0
2017-08-03T01:58:14.589Z,0
2017-08-03T01:58:40.689Z,0
2017-08-03T01:59:06.797Z,0
2017-08-03T01:59:32.907Z,0
2017-08-03T01:59:59.011Z,0
2017-08-03T02:00:25.156Z,0
2017-08-03T02:00:51.252Z,0
2017-08-03T02:01:17.365Z,0
2017-08-03T02:01:43.576Z,0
2017-08-03T02:02:09.704Z,0
2017-08-03T02:02:35.841Z,0
2017-08-03T02:03:01.994Z,0
2017-08-03T02:03:28.127Z,0
2017-08-03T02:03:54.265Z,0
2017-08-03T02:04:20.392Z,0
2017-08-03T02:04:46.526Z,0
2017-08-03T02:05:12.695Z,0
2017-08-03T02:05:38.817Z,0
2017-08-03T02:06:04.941Z,0
2017-08-03T02:06:31.071Z,0
2017-08-03T02:06:57.203Z,0
2017-08-03T02:07:23.315Z,0
2017-08-03T02:07:49.468Z,0
2017-08-03T02:08:15.629Z,0
2017-08-03T02:08:41.746Z,0
2017-08-03T02:09:07.868Z,0
2017-08-03T02:09:34.028Z,0
2017-08-03T02:10:00.149Z,0
2017-08-03T02:10:26.239Z,0
2017-08-03T02:10:52.347Z,0
2017-08-03T02:11:18.471Z,0
2017-08-03T02:11:44.675Z,0
2017-08-03T02:12:10.795Z,0
2017-08-03T02:12:36.916Z,0
2017-08-03T02:13:03.072Z,0
2017-08-03T02:13:29.222Z,0
2017-08-03T02:13:55.362Z,0
2017-08-03T02:14:21.505Z,0
2017-08-03T02:14:47.653Z,0
2017-08-03T02:15:13.791Z,0
2017-08-03T02:15:39.982Z,0
2017-08-03T02:16:06.077Z,0
2017-08-03T02:16:32.256Z,0
2017-08-03T02:16:58.370Z,0
2017-08-03T02:17:24.513Z,0
2017-08-03T02:17:50.678Z,0
2017-08-03T02:18:16.775Z,0
2017-08-03T02:18:42.889Z,0
2017-08-03T02:19:09.044Z,0
2017-08-03T02:19:35.171Z,0
2017-08-03T02:20:01.285Z,0
2017-08-03T02:20:27.457Z,0
2017-08-03T02:20:53.614Z,0
2017-08-03T02:21:19.725Z,0
2017-08-03T02:21:45.849Z,0
2017-08-03T02:22:11.982Z,0
2017-08-03T02:22:38.092Z,0
2017-08-03T02:23:04.223Z,0
2017-08-03T02:23:30.339Z,0
2017-08-03T02:23:56.466Z,0
2017-08-03T02:24:22.601Z,0
2017-08-03T02:24:48.788Z,0
2017-08-03T02:25:14.937Z,0
2017-08-03T02:25:41.069Z,0
2017-08-03T02:26:07.184Z,0
2017-08-03T02:26:33.305Z,0
2017-08-03T02:26:59.412Z,0
2017-08-03T02:27:25.530Z,0
2017-08-03T02:27:51.672Z,0
2017-08-03T02:28:18.105Z,0
2017-08-03T02:28:44.262Z,0
2017-08-03T02:29:10.391Z,0
2017-08-03T02:29:36.504Z,0
2017-08-03T02:30:02.652Z,0
2017-08-03T02:30:28.784Z,0
2017-08-03T02:30:54.955Z,0
2017-08-03T02:31:21.069Z,0
2017-08-03T02:31:47.231Z,0
2017-08-03T02:32:13.382Z,0
2017-08-03T02:32:39.472Z,0
2017-08-03T02:33:05.685Z,0
2017-08-03T02:33:31.836Z,0
2017-08-03T02:33:57.952Z,0
2017-08-03T02:34:24.132Z,0
2017-08-03T02:34:50.292Z,0
2017-08-03T02:35:16.405Z,0
2017-08-03T02:35:42.527Z,0
2017-08-03T02:36:08.688Z,0
2017-08-03T02:36:34.824Z,0
2017-08-03T02:37:01.020Z,0
2017-08-03T02:37:27.177Z,0
2017-08-03T02:37:53.322Z,0
2017-08-03T02:38:19.460Z,0
2017-08-03T02:38:45.648Z,0
2017-08-03T02:39:11.827Z,0
2017-08-03T02:39:38.007Z,0
2017-08-03T02:40:04.121Z,0
2017-08-03T02:40:30.244Z,0
2017-08-03T02:40:56.405Z,0
2017-08-03T02:41:22.553Z,0
2017-08-03T02:41:48.666Z,0
2017-08-03T02:42:14.828Z,0
2017-08-03T02:42:40.952Z,0
2017-08-03T02:43:07.114Z,0
2017-08-03T02:43:33.248Z,0
2017-08-03T02:43:59.405Z,0
2017-08-03T02:44:25.519Z,0
2017-08-03T02:44:51.644Z,0
2017-08-03T02:45:17.787Z,0
2017-08-03T02:45:43.946Z,0
2017-08-03T02:46:10.098Z,0
2017-08-03T02:46:36.215Z,0
2017-08-03T02:47:02.390Z,0
2017-08-03T02:47:28.575Z,0
2017-08-03T02:47:54.736Z,0
2017-08-03T02:48:20.915Z,0
2017-08-03T02:48:47.101Z,0
2017-08-03T02:49:13.235Z,0
2017-08-03T02:49:39.413Z,0
2017-08-03T02:50:05.602Z,0
2017-08-03T02:50:31.778Z,0
2017-08-03T02:50:57.996Z,0
2017-08-03T02:51:24.189Z,0
2017-08-03T02:51:50.374Z,0
2017-08-03T02:52:16.598Z,0
2017-08-03T02:52:42.732Z,0
2017-08-03T02:53:08.914Z,0
2017-08-03T02:53:35.099Z,0
2017-08-03T02:54:01.273Z,0
2017-08-03T02:54:27.438Z,0
2017-08-03T02:54:53.625Z,0
2017-08-03T02:55:19.768Z,0
2017-08-03T02:55:45.959Z,0
2017-08-03T02:56:12.175Z,0
2017-08-03T02:56:38.292Z,0
2017-08-03T02:57:04.479Z,0
2017-08-03T02:57:30.657Z,0
2017-08-03T02:57:56.801Z,0
2017-08-03T02:58:22.957Z,0
2017-08-03T02:58:49.128Z,0
2017-08-03T02:59:15.295Z,0
2017-08-03T02:59:41.450Z,0
2017-08-03T03:00:07.661Z,0
2017-08-03T03:00:33.826Z,0
2017-08-03T03:01:00.016Z,0
2017-08-03T03:01:26.192Z,0
2017-08-03T03:01:52.339Z,0
2017-08-03T03:02:18.534Z,0
2017-08-03T03:02:44.645Z,0
2017-08-03T03:03:10.770Z,0
2017-08-03T03:03:36.944Z,0
2017-08-03T03:04:03.084Z,0
2017-08-03T03:04:29.204Z,0
2017-08-03T03:04:55.354Z,0
2017-08-03T03:05:21.490Z,0
2017-08-03T03:05:47.672Z,0
2017-08-03T03:06:13.822Z,0
2017-08-03T03:06:39.957Z,0
2017-08-03T03:07:06.073Z,0
2017-08-03T03:07:32.214Z,0
2017-08-03T03:07:58.364Z,0
2017-08-03T03:08:24.714Z,0
2017-08-03T03:08:50.909Z,0
2017-08-03T03:09:17.034Z,0
2017-08-03T03:09:43.218Z,0
2017-08-03T03:10:09.353Z,0
2017-08-03T03:10:35.467Z,0
2017-08-03T03:11:01.589Z,0
2017-08-03T03:11:27.730Z,0
2017-08-03T03:11:53.905Z,0
2017-08-03T03:12:20.058Z,0
2017-08-03T03:12:46.261Z,0
2017-08-03T03:13:12.390Z,0
2017-08-03T03:13:38.495Z,0
2017-08-03T03:14:04.648Z,0
2017-08-03T03:14:30.803Z,0
2017-08-03T03:14:56.977Z,0
2017-08-03T03:15:23.116Z,0
2017-08-03T03:15:49.274Z,0
2017-08-03T03:16:15.514Z,0
2017-08-03T03:16:41.678Z,0
2017-08-03T03:17:07.838Z,0
2017-08-03T03:17:33.982Z,0
2017-08-03T03:18:00.153Z,0
2017-08-03T03:18:26.331Z,0
2017-08-03T03:18:52.482Z,0
2017-08-03T03:19:18.590Z,0
2017-08-03T03:19:44.767Z,0
2017-08-03T03:20:10.892Z,0
2017-08-03T03:20:37.029Z,0
2017-08-03T03:21:03.174Z,0
2017-08-03T03:21:29.299Z,0
2017-08-03T03:21:55.471Z,0
2017-08-03T03:22:21.609Z,0
2017-08-03T03:22:47.799Z,0
2017-08-03T03:23:13.942Z,0
2017-08-03T03:23:40.108Z,0
2017-08-03T03:24:06.258Z,0
2017-08-03T03:24:32.403Z,0
2017-08-03T03:24:58.530Z,0
2017-08-03T03:25:24.638Z,0
2017-08-03T03:25:50.805Z,0
2017-08-03T03:26:16.991Z,0
2017-08-03T03:26:43.198Z,0
2017-08-03T03:27:09.361Z,0
2017-08-03T03:27:35.553Z,0
2017-08-03T03:28:01.666Z,0
2017-08-03T03:28:27.813Z,0
2017-08-03T03:28:53.955Z,0
2017-08-03T03:29:20.140Z,0
2017-08-03T03:29:46.281Z,0
2017-08-03T03:30:12.514Z,0
2017-08-03T03:30:38.708Z,0
2017-08-03T03:31:04.868Z,0
2017-08-03T03:31:31.041Z,0
2017-08-03T03:31:57.235Z,0
2017-08-03T03:32:23.396Z,0
2017-08-03T03:32:49.582Z,0
2017-08-03T03:33:15.777Z,0
2017-08-03T03:33:41.928Z,0
2017-08-03T03:34:08.086Z,0
2017-08-03T03:34:34.190Z,0
2017-08-03T03:35:00.393Z,0
2017-08-03T03:35:26.597Z,0
2017-08-03T03:35:52.759Z,0
2017-08-03T03:36:18.910Z,0
2017-08-03T03:36:45.079Z,0
2017-08-03T03:37:11.255Z,0
2017-08-03T03:37:37.411Z,0
2017-08-03T03:38:03.543Z,0
2017-08-03T03:38:29.726Z,0
2017-08-03T03:38:55.911Z,0
2017-08-03T03:39:22.052Z,0
2017-08-03T03:39:48.279Z,0
2017-08-03T03:40:14.466Z,0
2017-08-03T03:40:40.579Z,0
2017-08-03T03:41:06.762Z,0
2017-08-03T03:41:32.920Z,0
2017-08-03T03:41:59.039Z,0
2017-08-03T03:42:25.162Z,0
2017-08-03T03:42:51.300Z,0
2017-08-03T03:43:17.493Z,0
2017-08-03T03:43:43.683Z,0
2017-08-03T03:44:09.824Z,0
2017-08-03T03:44:35.985Z,0
2017-08-03T03:45:02.172Z,0
2017-08-03T03:45:28.380Z,0
2017-08-03T03:45:54.544Z,0
2017-08-03T03:46:20.705Z,0
2017-08-03T03:46:46.869Z,0
2017-08-03T03:47:13.057Z,0
2017-08-03T03:47:39.233Z,0
2017-08-03T03:48:05.395Z,0
2017-08-03T03:48:31.524Z,0
2017-08-03T03:48:57.667Z,0
2017-08-03T03:49:23.834Z,0
2017-08-03T03:49:49.986Z,0
2017-08-03T03:50:16.137Z,0
2017-08-03T03:50:42.246Z,0
2017-08-03T03:51:08.424Z,0
2017-08-03T03:51:34.607Z,0
2017-08-03T03:52:00.751Z,0
2017-08-03T03:52:26.863Z,0
2017-08-03T03:52:53.001Z,0
2017-08-03T03:53:19.161Z,0
2017-08-03T03:53:45.282Z,0
2017-08-03T03:54:11.478Z,0
2017-08-03T03:54:37.597Z,0
2017-08-03T03:55:03.757Z,0
2017-08-03T03:55:29.920Z,0
2017-08-03T03:55:56.100Z,0
2017-08-03T03:56:22.379Z,0
2017-08-03T03:56:48.586Z,0
2017-08-03T03:57:14.756Z,0
2017-08-03T03:57:40.900Z,0
2017-08-03T03:58:07.052Z,0
2017-08-03T03:58:33.269Z,0
2017-08-03T03:58:59.429Z,0
2017-08-03T03:59:25.612Z,0
2017-08-03T03:59:51.827Z,0
2017-08-03T04:00:18.020Z,0
2017-08-03T04:00:44.191Z,0
2017-08-03T04:01:10.374Z,0
2017-08-03T04:01:36.544Z,0
2017-08-03T04:02:02.678Z,0
2017-08-03T04:02:28.869Z,0
2017-08-03T04:02:55.104Z,0
2017-08-03T04:03:21.237Z,0
2017-08-03T04:03:47.398Z,0
2017-08-03T04:04:13.574Z,0
2017-08-03T04:04:39.770Z,0
2017-08-03T04:05:05.972Z,0
2017-08-03T04:05:32.097Z,0
2017-08-03T04:05:58.234Z,0
2017-08-03T04:06:24.438Z,0
2017-08-03T04:06:50.624Z,0
2017-08-03T04:07:16.845Z,0
2017-08-03T04:07:42.985Z,0
2017-08-03T04:08:09.174Z,0
2017-08-03T04:08:35.288Z,0
2017-08-03T04:09:01.446Z,0
2017-08-03T04:09:27.611Z,0
2017-08-03T04:09:53.729Z,5
2017-08-03T04:10:19.950Z,5
2017-08-03T04:10:46.119Z,5
2017-08-03T04:11:12.319Z,5
2017-08-03T04:11:38.443Z,5
2017-08-03T04:12:04.590Z,5
2017-08-03T04:12:30.756Z,5
2017-08-03T04:12:56.885Z,5
2017-08-03T04:13:23.089Z,5
2017-08-03T04:13:49.252Z,5
2017-08-03T04:14:15.406Z,5
2017-08-03T04:14:41.580Z,5
2017-08-03T04:15:07.736Z,5
2017-08-03T04:15:33.876Z,5
2017-08-03T04:16:00.047Z,5
2017-08-03T04:16:26.230Z,5
2017-08-03T04:16:52.439Z,5
2017-08-03T04:17:18.598Z,5
2017-08-03T04:17:44.756Z,5
2017-08-03T04:18:10.872Z,5
2017-08-03T04:18:37.013Z,5
2017-08-03T04:19:03.221Z,5
2017-08-03T04:19:29.375Z,5
2017-08-03T04:19:55.547Z,5
2017-08-03T04:20:21.666Z,5
2017-08-03T04:20:47.856Z,5
2017-08-03T04:21:14.035Z,5
2017-08-03T04:21:40.182Z,5
2017-08-03T04:22:06.321Z,5
2017-08-03T04:22:32.531Z,5
2017-08-03T04:22:58.714Z,5
2017-08-03T04:23:24.883Z,5
2017-08-03T04:23:51.082Z,10
2017-08-03T04:24:17.237Z,10
2017-08-03T04:24:43.400Z,10
2017-08-03T04:25:09.603Z,10
2017-08-03T04:25:35.720Z,10
2017-08-03T04:26:01.866Z,10
2017-08-03T04:26:28.051Z,10
2017-08-03T04:26:54.182Z,10
2017-08-03T04:27:20.361Z,10
2017-08-03T04:27:46.546Z,10
2017-08-03T04:28:12.712Z,10
2017-08-03T04:28:38.824Z,10
2017-08-03T04:29:04.980Z,10
2017-08-03T04:29:31.127Z,10
2017-08-03T04:29:57.287Z,10
2017-08-03T04:30:23.418Z,10
2017-08-03T04:30:49.590Z,10
2017-08-03T04:31:15.770Z,10
2017-08-03T04:31:41.941Z,5
2017-08-03T04:32:08.141Z,5
2017-08-03T04:32:34.294Z,5
2017-08-03T04:33:00.409Z,5
2017-08-03T04:33:26.577Z,5
2017-08-03T04:33:52.738Z,5
2017-08-03T04:34:18.914Z,5
2017-08-03T04:34:45.079Z,5
2017-08-03T04:35:11.237Z,5
2017-08-03T04:35:37.356Z,5
2017-08-03T04:36:03.466Z,10
2017-08-03T04:36:29.668Z,10
2017-08-03T04:36:55.808Z,10
2017-08-03T04:37:21.969Z,10
2017-08-03T04:37:48.115Z,10
2017-08-03T04:38:14.250Z,10
2017-08-03T04:38:40.442Z,10
2017-08-03T04:39:06.589Z,10
2017-08-03T04:39:32.751Z,10
2017-08-03T04:39:58.925Z,10
2017-08-03T04:40:25.083Z,10
2017-08-03T04:40:51.188Z,10
2017-08-03T04:41:17.334Z,10
2017-08-03T04:41:43.520Z,10
2017-08-03T04:42:09.657Z,10
2017-08-03T04:42:35.807Z,10
2017-08-03T04:43:02.000Z,10
2017-08-03T04:43:28.181Z,10
2017-08-03T04:43:54.333Z,10
2017-08-03T04:44:20.496Z,10
2017-08-03T04:44:46.759Z,10
2017-08-03T04:45:12.939Z,10
2017-08-03T04:45:39.130Z,10
2017-08-03T04:46:05.278Z,10
2017-08-03T04:46:31.464Z,10
2017-08-03T04:46:57.605Z,10
2017-08-03T04:47:23.737Z,10
2017-08-03T04:47:49.920Z,10
2017-08-03T04:48:16.101Z,15
2017-08-03T04:48:42.270Z,15
2017-08-03T04:49:08.422Z,15
2017-08-03T04:49:34.570Z,15
2017-08-03T04:50:00.682Z,15
2017-08-03T04:50:26.864Z,15
2017-08-03T04:50:53.017Z,15
2017-08-03T04:51:19.155Z,15
2017-08-03T04:51:45.347Z,15
2017-08-03T04:52:11.536Z,20
2017-08-03T04:52:37.671Z,20
2017-08-03T04:53:03.844Z,20
2017-08-03T04:53:29.988Z,20
2017-08-03T04:53:56.137Z,25
2017-08-03T04:54:22.355Z,25
2017-08-03T04:54:48.492Z,25
2017-08-03T04:55:14.636Z,30
2017-08-03T04:55:40.825Z,30
2017-08-03T04:56:06.967Z,30
2017-08-03T04:56:33.116Z,35
2017-08-03T04:56:59.301Z,35
2017-08-03T04:57:25.478Z,40
2017-08-03T04:57:51.589Z,40
2017-08-03T04:58:17.782Z,40
2017-08-03T04:58:43.934Z,45
2017-08-03T04:59:10.080Z,45
2017-08-03T04:59:36.190Z,45
2017-08-03T05:00:02.304Z,50
2017-08-03T05:00:28.463Z,50
2017-08-03T05:00:54.603Z,50
2017-08-03T05:01:20.769Z,55
2017-08-03T05:01:46.960Z,55
2017-08-03T05:02:13.106Z,60
2017-08-03T05:02:39.219Z,60
2017-08-03T05:03:05.431Z,65
2017-08-03T05:03:31.547Z,70
2017-08-03T05:03:57.684Z,70
2017-08-03T05:04:23.833Z,70
2017-08-03T05:04:49.975Z,75
2017-08-03T05:05:16.164Z,75
2017-08-03T05:05:42.343Z,75
2017-08-03T05:06:08.569Z,75
2017-08-03T05:06:34.754Z,75
2017-08-03T05:07:00.873Z,75
2017-08-03T05:07:27.013Z,75
2017-08-03T05:07:53.192Z,75
2017-08-03T05:08:19.350Z,80
2017-08-03T05:08:45.486Z,75
2017-08-03T05:09:11.662Z,75
2017-08-03T05:09:37.819Z,75
2017-08-03T05:10:03.965Z,75
2017-08-03T05:10:30.164Z,75
2017-08-03T05:10:56.350Z,75
2017-08-03T05:11:22.491Z,80
2017-08-03T05:11:48.658Z,80
2017-08-03T05:12:14.841Z,85
2017-08-03T05:12:41.022Z,85
2017-08-03T05:13:07.184Z,85
2017-08-03T05:13:33.344Z,85
2017-08-03T05:13:59.495Z,85
2017-08-03T05:14:25.631Z,85
2017-08-03T05:14:51.782Z,85
2017-08-03T05:15:17.939Z,85
2017-08-03T05:15:44.050Z,85
2017-08-03T05:16:10.164Z,80
2017-08-03T05:16:36.333Z,80
2017-08-03T05:17:02.540Z,75
2017-08-03T05:17:28.720Z,75
2017-08-03T05:17:54.883Z,75
2017-08-03T05:18:21.064Z,75
2017-08-03T05:18:47.188Z,75
2017-08-03T05:19:13.353Z,75
2017-08-03T05:19:39.497Z,70
2017-08-03T05:20:05.655Z,70
2017-08-03T05:20:31.762Z,70
2017-08-03T05:20:57.879Z,75
2017-08-03T05:21:24.026Z,75
2017-08-03T05:21:50.209Z,75
2017-08-03T05:22:16.428Z,75
2017-08-03T05:22:42.565Z,75
2017-08-03T05:23:08.768Z,80
2017-08-03T05:23:34.952Z,85
2017-08-03T05:24:01.154Z,90
2017-08-03T05:24:27.298Z,100
2017-08-03T05:24:53.485Z,110
2017-08-03T05:25:19.659Z,120
2017-08-03T05:25:45.799Z,135
2017-08-03T05:26:11.928Z,150
2017-08-03T05:26:38.097Z,160
2017-08-03T05:27:04.251Z,175
2017-08-03T05:27:30.395Z,185
2017-08-03T05:27:56.535Z,200
2017-08-03T05:28:22.753Z,210
2017-08-03T05:28:48.863Z,215
2017-08-03T05:29:15.059Z,220
2017-08-03T05:29:41.185Z,225
2017-08-03T05:30:07.303Z,225
2017-08-03T05:30:33.440Z,225
2017-08-03T05:30:59.624Z,225
2017-08-03T05:31:25.742Z,225
2017-08-03T05:31:51.908Z,220
2017-08-03T05:32:18.093Z,220
2017-08-03T05:32:44.275Z,220
2017-08-03T05:33:10.437Z,225
2017-08-03T05:33:36.559Z,220
2017-08-03T05:34:02.715Z,220
2017-08-03T05:34:28.827Z,225
2017-08-03T05:34:54.996Z,235
2017-08-03T05:35:21.155Z,240
2017-08-03T05:35:47.297Z,250
2017-08-03T05:36:13.469Z,260
2017-08-03T05:36:39.688Z,255
2017-08-03T05:37:05.806Z,255
2017-08-03T05:37:31.918Z,250
2017-08-03T05:37:58.071Z,235
2017-08-03T05:38:24.213Z,225
2017-08-03T05:38:50.404Z,215
2017-08-03T05:39:16.516Z,205
2017-08-03T05:39:42.649Z,205
2017-08-03T05:40:08.837Z,200
2017-08-03T05:40:35.008Z,195
2017-08-03T05:41:01.147Z,195
2017-08-03T05:41:27.299Z,195
2017-08-03T05:41:53.541Z,195
2017-08-03T05:42:19.674Z,195
2017-08-03T05:42:45.825Z,200
2017-08-03T05:43:12.043Z,205
2017-08-03T05:43:38.158Z,210
2017-08-03T05:44:04.270Z,220
2017-08-03T05:44:30.409Z,220
2017-08-03T05:44:56.537Z,225
2017-08-03T05:45:22.721Z,230
2017-08-03T05:45:48.882Z,240
2017-08-03T05:46:15.037Z,245
2017-08-03T05:46:41.232Z,255
2017-08-03T05:47:07.397Z,260
2017-08-03T05:47:33.546Z,270
2017-08-03T05:47:59.699Z,275
2017-08-03T05:48:25.810Z,280
2017-08-03T05:48:52.009Z,290
2017-08-03T05:49:18.218Z,295
2017-08-03T05:49:44.364Z,295
2017-08-03T05:50:10.585Z,300
2017-08-03T05:50:36.807Z,300
2017-08-03T05:51:03.013Z,305
2017-08-03T05:51:29.234Z,305
2017-08-03T05:51:55.430Z,305
2017-08-03T05:52:21.602Z,300
2017-08-03T05:52:47.762Z,290
2017-08-03T05:53:13.902Z,280
2017-08-03T05:53:40.067Z,270
2017-08-03T05:54:06.257Z,250
2017-08-03T05:54:32.428Z,240
2017-08-03T05:54:58.638Z,225
2017-08-03T05:55:24.842Z,210
2017-08-03T05:55:50.981Z,200
2017-08-03T05:56:17.138Z,180
2017-08-03T05:56:43.313Z,170
2017-08-03T05:57:09.445Z,160
2017-08-03T05:57:35.574Z,155
2017-08-03T05:58:01.722Z,145
2017-08-03T05:58:27.960Z,140
2017-08-03T05:58:54.138Z,140
2017-08-03T05:59:20.284Z,135
2017-08-03T05:59:46.396Z,130
2017-08-03T06:00:12.576Z,130
2017-08-03T06:00:38.711Z,125
2017-08-03T06:01:04.932Z,125
2017-08-03T06:01:31.078Z,125
2017-08-03T06:01:57.243Z,130
2017-08-03T06:02:23.424Z,130
2017-08-03T06:02:49.608Z,135
2017-08-03T06:03:15.800Z,135
2017-08-03T06:03:41.952Z,140
2017-08-03T06:04:08.170Z,145
2017-08-03T06:04:34.309Z,145
2017-08-03T06:05:00.454Z,150
2017-08-03T06:05:26.641Z,150
2017-08-03T06:05:52.812Z,150
2017-08-03T06:06:19.058Z,150
2017-08-03T06:06:45.193Z,150
2017-08-03T06:07:11.315Z,150
2017-08-03T06:07:37.497Z,155
2017-08-03T06:08:03.656Z,160
2017-08-03T06:08:29.833Z,165
2017-08-03T06:08:55.990Z,170
2017-08-03T06:09:22.102Z,175
2017-08-03T06:09:48.243Z,175
2017-08-03T06:10:14.400Z,180
2017-08-03T06:10:40.509Z,180
2017-08-03T06:11:06.620Z,180
2017-08-03T06:11:32.800Z,180
2017-08-03T06:11:58.949Z,180
2017-08-03T06:12:25.074Z,175
2017-08-03T06:12:51.210Z,170
2017-08-03T06:13:17.388Z,165
2017-08-03T06:13:43.543Z,160
2017-08-03T06:14:09.716Z,155
2017-08-03T06:14:35.880Z,150
2017-08-03T06:15:02.105Z,145
2017-08-03T06:15:28.308Z,145
2017-08-03T06:15:54.449Z,145
2017-08-03T06:16:20.635Z,150
2017-08-03T06:16:46.787Z,155
2017-08-03T06:17:12.895Z,160
2017-08-03T06:17:39.049Z,165
2017-08-03T06:18:05.273Z,170
2017-08-03T06:18:31.441Z,175
2017-08-03T06:18:57.561Z,180
2017-08-03T06:19:23.689Z,180
2017-08-03T06:19:49.857Z,175
2017-08-03T06:20:16.025Z,170